sensor_id;sensor_type;location;lat;lon;timestamp;pressure;altitude;pressure_sealevel;temperature;humidity
36014;BME280;22275;43.208;27.620;2022-08-30T00:02:12;101032.22;;;26.90;100.00
36014;BME280;22275;43.208;27.620;2022-08-30T00:04:40;101027.31;;;26.35;100.00
36014;BME280;22275;43.208;27.620;2022-08-30T00:07:08;101022.91;;;26.49;100.00
36014;BME280;22275;43.208;27.620;2022-08-30T00:09:35;101023.47;;;26.73;100.00
36014;BME280;22275;43.208;27.620;2022-08-30T00:12:03;101025.59;;;26.93;100.00
36014;BME280;22275;43.208;27.620;2022-08-30T00:14:30;101025.47;;;27.01;100.00
36014;BME280;22275;43.208;27.620;2022-08-30T00:16:58;101021.47;;;27.32;100.00
36014;BME280;22275;43.208;27.620;2022-08-30T00:19:25;101026.00;;;27.47;100.00
36014;BME280;22275;43.208;27.620;2022-08-30T00:21:54;101018.44;;;27.63;100.00
36014;BME280;22275;43.208;27.620;2022-08-30T00:24:22;101024.88;;;27.62;100.00
36014;BME280;22275;43.208;27.620;2022-08-30T00:26:49;101027.97;;;27.59;100.00
36014;BME280;22275;43.208;27.620;2022-08-30T00:29:17;101031.41;;;27.47;100.00
36014;BME280;22275;43.208;27.620;2022-08-30T00:31:44;101025.66;;;27.56;100.00
36014;BME280;22275;43.208;27.620;2022-08-30T00:34:11;101027.94;;;27.53;100.00
36014;BME280;22275;43.208;27.620;2022-08-30T00:36:39;101025.59;;;26.63;100.00
36014;BME280;22275;43.208;27.620;2022-08-30T00:39:07;101032.97;;;27.20;100.00
36014;BME280;22275;43.208;27.620;2022-08-30T00:41:35;101024.59;;;27.36;100.00
36014;BME280;22275;43.208;27.620;2022-08-30T00:44:03;101019.19;;;27.36;100.00
36014;BME280;22275;43.208;27.620;2022-08-30T00:46:31;101022.25;;;27.48;100.00
36014;BME280;22275;43.208;27.620;2022-08-30T00:49:02;101017.75;;;27.55;100.00
36014;BME280;22275;43.208;27.620;2022-08-30T00:51:32;101025.44;;;27.36;100.00
36014;BME280;22275;43.208;27.620;2022-08-30T00:54:00;101023.56;;;27.52;100.00
36014;BME280;22275;43.208;27.620;2022-08-30T00:56:30;101027.66;;;27.48;100.00
36014;BME280;22275;43.208;27.620;2022-08-30T00:58:59;101027.03;;;27.46;100.00
36014;BME280;22275;43.208;27.620;2022-08-30T01:01:28;101022.69;;;27.51;100.00
36014;BME280;22275;43.208;27.620;2022-08-30T01:03:58;101031.06;;;27.35;100.00
36014;BME280;22275;43.208;27.620;2022-08-30T01:06:25;101035.66;;;26.99;100.00
36014;BME280;22275;43.208;27.620;2022-08-30T01:08:53;101025.59;;;26.93;100.00
36014;BME280;22275;43.208;27.620;2022-08-30T01:11:21;101023.78;;;27.00;100.00
36014;BME280;22275;43.208;27.620;2022-08-30T01:13:53;101030.16;;;26.92;100.00
36014;BME280;22275;43.208;27.620;2022-08-30T01:16:21;101023.16;;;26.98;100.00
36014;BME280;22275;43.208;27.620;2022-08-30T01:18:51;101030.00;;;27.15;100.00
36014;BME280;22275;43.208;27.620;2022-08-30T01:21:23;101026.34;;;27.22;100.00
36014;BME280;22275;43.208;27.620;2022-08-30T01:23:56;101028.66;;;27.04;100.00
36014;BME280;22275;43.208;27.620;2022-08-30T01:26:26;101029.47;;;27.05;100.00
36014;BME280;22275;43.208;27.620;2022-08-30T01:28:56;101026.34;;;27.22;100.00
36014;BME280;22275;43.208;27.620;2022-08-30T01:31:25;101034.13;;;27.11;100.00
36014;BME280;22275;43.208;27.620;2022-08-30T01:33:52;101026.88;;;26.97;100.00
36014;BME280;22275;43.208;27.620;2022-08-30T01:36:20;101032.16;;;27.05;100.00
36014;BME280;22275;43.208;27.620;2022-08-30T01:38:49;101028.44;;;27.06;100.00
36014;BME280;22275;43.208;27.620;2022-08-30T01:41:20;101024.53;;;27.08;100.00
36014;BME280;22275;43.208;27.620;2022-08-30T01:43:50;101034.09;;;26.75;100.00
36014;BME280;22275;43.208;27.620;2022-08-30T01:46:21;101036.16;;;26.29;100.00
36014;BME280;22275;43.208;27.620;2022-08-30T01:48:49;101036.63;;;25.95;100.00
36014;BME280;22275;43.208;27.620;2022-08-30T01:51:18;101044.97;;;25.48;100.00
36014;BME280;22275;43.208;27.620;2022-08-30T01:53:46;101037.19;;;25.53;100.00
36014;BME280;22275;43.208;27.620;2022-08-30T01:56:13;101030.00;;;25.83;100.00
36014;BME280;22275;43.208;27.620;2022-08-30T01:58:43;101030.13;;;26.04;100.00
36014;BME280;22275;43.208;27.620;2022-08-30T02:01:12;101029.66;;;26.01;100.00
36014;BME280;22275;43.208;27.620;2022-08-30T02:03:42;101030.69;;;26.00;100.00
36014;BME280;22275;43.208;27.620;2022-08-30T02:06:11;101028.78;;;25.86;100.00
36014;BME280;22275;43.208;27.620;2022-08-30T02:08:39;101028.72;;;25.94;100.00
36014;BME280;22275;43.208;27.620;2022-08-30T02:11:07;101029.25;;;25.52;100.00
36014;BME280;22275;43.208;27.620;2022-08-30T02:13:35;101028.50;;;24.74;100.00
36014;BME280;22275;43.208;27.620;2022-08-30T02:16:06;101032.53;;;24.86;100.00
36014;BME280;22275;43.208;27.620;2022-08-30T02:18:35;101023.31;;;24.80;100.00
36014;BME280;22275;43.208;27.620;2022-08-30T02:21:03;101028.53;;;25.04;100.00
36014;BME280;22275;43.208;27.620;2022-08-30T02:23:31;101027.31;;;25.38;100.00
36014;BME280;22275;43.208;27.620;2022-08-30T02:25:58;101032.63;;;25.46;100.00
36014;BME280;22275;43.208;27.620;2022-08-30T02:28:26;101026.88;;;25.71;100.00
36014;BME280;22275;43.208;27.620;2022-08-30T02:30:53;101033.38;;;26.00;100.00
36014;BME280;22275;43.208;27.620;2022-08-30T02:33:22;101036.75;;;26.02;100.00
36014;BME280;22275;43.208;27.620;2022-08-30T02:35:49;101036.75;;;26.02;100.00
36014;BME280;22275;43.208;27.620;2022-08-30T02:38:17;101040.75;;;26.06;100.00
36014;BME280;22275;43.208;27.620;2022-08-30T02:40:44;101033.97;;;26.10;100.00
36014;BME280;22275;43.208;27.620;2022-08-30T02:43:11;101050.31;;;26.16;100.00
36014;BME280;22275;43.208;27.620;2022-08-30T02:45:39;101047.78;;;26.15;100.00
36014;BME280;22275;43.208;27.620;2022-08-30T02:48:06;101052.34;;;25.92;100.00
36014;BME280;22275;43.208;27.620;2022-08-30T02:50:38;101062.22;;;25.62;100.00
36014;BME280;22275;43.208;27.620;2022-08-30T02:53:05;101058.56;;;25.78;100.00
36014;BME280;22275;43.208;27.620;2022-08-30T02:55:33;101059.94;;;24.97;100.00
36014;BME280;22275;43.208;27.620;2022-08-30T02:58:00;101069.81;;;24.66;100.00
36014;BME280;22275;43.208;27.620;2022-08-30T03:00:28;101060.28;;;24.86;100.00
36014;BME280;22275;43.208;27.620;2022-08-30T03:02:55;101056.34;;;25.05;100.00
36014;BME280;22275;43.208;27.620;2022-08-30T03:05:23;101064.78;;;25.02;100.00
36014;BME280;22275;43.208;27.620;2022-08-30T03:07:52;101065.47;;;24.96;100.00
36014;BME280;22275;43.208;27.620;2022-08-30T03:10:19;101061.13;;;25.17;100.00
36014;BME280;22275;43.208;27.620;2022-08-30T03:12:47;101066.06;;;25.14;100.00
36014;BME280;22275;43.208;27.620;2022-08-30T03:15:15;101061.22;;;25.32;100.00
36014;BME280;22275;43.208;27.620;2022-08-30T03:17:42;101062.38;;;25.38;100.00
36014;BME280;22275;43.208;27.620;2022-08-30T03:20:10;101069.16;;;25.34;100.00
36014;BME280;22275;43.208;27.620;2022-08-30T03:22:38;101069.50;;;25.31;100.00
36014;BME280;22275;43.208;27.620;2022-08-30T03:25:07;101075.47;;;25.18;100.00
36014;BME280;22275;43.208;27.620;2022-08-30T03:27:35;101069.91;;;24.89;100.00
36014;BME280;22275;43.208;27.620;2022-08-30T03:30:03;101078.19;;;24.71;100.00
36014;BME280;22275;43.208;27.620;2022-08-30T03:32:30;101071.81;;;24.64;100.00
36014;BME280;22275;43.208;27.620;2022-08-30T03:34:58;101081.16;;;24.37;100.00
36014;BME280;22275;43.208;27.620;2022-08-30T03:37:25;101080.19;;;23.98;100.00
36014;BME280;22275;43.208;27.620;2022-08-30T03:39:53;101076.47;;;23.99;100.00
36014;BME280;22275;43.208;27.620;2022-08-30T03:42:21;101081.16;;;23.73;100.00
36014;BME280;22275;43.208;27.620;2022-08-30T03:44:49;101074.09;;;24.04;100.00
36014;BME280;22275;43.208;27.620;2022-08-30T03:47:16;101074.38;;;24.49;100.00
36014;BME280;22275;43.208;27.620;2022-08-30T03:49:44;101081.03;;;24.86;100.00
36014;BME280;22275;43.208;27.620;2022-08-30T03:52:12;101077.81;;;24.90;100.00
36014;BME280;22275;43.208;27.620;2022-08-30T03:54:39;101081.34;;;24.91;100.00
36014;BME280;22275;43.208;27.620;2022-08-30T03:57:06;101086.38;;;25.25;100.00
36014;BME280;22275;43.208;27.620;2022-08-30T03:59:35;101086.53;;;25.31;100.00
36014;BME280;22275;43.208;27.620;2022-08-30T04:02:02;101088.31;;;25.39;100.00
36014;BME280;22275;43.208;27.620;2022-08-30T04:04:30;101092.09;;;25.60;100.00
36014;BME280;22275;43.208;27.620;2022-08-30T04:06:57;101093.78;;;25.61;100.00
36014;BME280;22275;43.208;27.620;2022-08-30T04:09:24;101100.84;;;25.62;100.00
36014;BME280;22275;43.208;27.620;2022-08-30T04:11:51;101104.91;;;25.58;100.00
36014;BME280;22275;43.208;27.620;2022-08-30T04:14:19;101107.69;;;25.73;100.00
36014;BME280;22275;43.208;27.620;2022-08-30T04:16:49;101117.75;;;25.79;100.00
36014;BME280;22275;43.208;27.620;2022-08-30T04:19:16;101120.63;;;25.78;100.00
36014;BME280;22275;43.208;27.620;2022-08-30T04:21:44;101124.59;;;25.90;100.00
36014;BME280;22275;43.208;27.620;2022-08-30T04:24:12;101119.78;;;26.00;100.00
36014;BME280;22275;43.208;27.620;2022-08-30T04:26:39;101121.69;;;26.14;100.00
36014;BME280;22275;43.208;27.620;2022-08-30T04:29:07;101116.78;;;26.17;100.00
36014;BME280;22275;43.208;27.620;2022-08-30T04:31:36;101122.84;;;26.34;100.00
36014;BME280;22275;43.208;27.620;2022-08-30T04:34:05;101118.59;;;26.54;100.00
36014;BME280;22275;43.208;27.620;2022-08-30T04:36:32;101126.09;;;26.67;100.00
36014;BME280;22275;43.208;27.620;2022-08-30T04:38:59;101130.38;;;26.61;100.00
36014;BME280;22275;43.208;27.620;2022-08-30T04:41:26;101128.84;;;26.44;100.00
36014;BME280;22275;43.208;27.620;2022-08-30T04:43:54;101129.78;;;26.51;100.00
36014;BME280;22275;43.208;27.620;2022-08-30T04:46:21;101130.91;;;26.71;100.00
36014;BME280;22275;43.208;27.620;2022-08-30T04:48:48;101129.63;;;26.67;100.00
36014;BME280;22275;43.208;27.620;2022-08-30T04:51:17;101145.81;;;25.93;100.00
36014;BME280;22275;43.208;27.620;2022-08-30T04:53:45;101149.72;;;25.67;100.00
36014;BME280;22275;43.208;27.620;2022-08-30T04:56:15;101146.41;;;25.19;100.00
36014;BME280;22275;43.208;27.620;2022-08-30T04:58:42;101152.38;;;25.06;100.00
36014;BME280;22275;43.208;27.620;2022-08-30T05:01:12;101148.50;;;25.00;100.00
36014;BME280;22275;43.208;27.620;2022-08-30T05:03:40;101158.03;;;24.64;100.00
36014;BME280;22275;43.208;27.620;2022-08-30T05:06:10;101162.69;;;24.78;100.00
36014;BME280;22275;43.208;27.620;2022-08-30T05:08:39;101161.31;;;24.98;100.00
36014;BME280;22275;43.208;27.620;2022-08-30T05:11:07;101156.25;;;25.11;100.00
36014;BME280;22275;43.208;27.620;2022-08-30T05:13:35;101160.00;;;25.33;100.00
36014;BME280;22275;43.208;27.620;2022-08-30T05:16:05;101160.69;;;25.89;100.00
36014;BME280;22275;43.208;27.620;2022-08-30T05:18:33;101164.38;;;25.96;100.00
36014;BME280;22275;43.208;27.620;2022-08-30T05:21:04;101158.59;;;25.53;100.00
36014;BME280;22275;43.208;27.620;2022-08-30T05:23:32;101163.50;;;25.42;100.00
36014;BME280;22275;43.208;27.620;2022-08-30T05:26:03;101168.34;;;25.46;100.00
36014;BME280;22275;43.208;27.620;2022-08-30T05:28:32;101165.41;;;25.64;100.00
36014;BME280;22275;43.208;27.620;2022-08-30T05:31:00;101156.84;;;26.06;100.00
36014;BME280;22275;43.208;27.620;2022-08-30T05:33:27;101160.63;;;26.42;100.00
36014;BME280;22275;43.208;27.620;2022-08-30T05:35:55;101161.63;;;26.41;100.00
36014;BME280;22275;43.208;27.620;2022-08-30T05:38:22;101155.69;;;26.60;100.00
36014;BME280;22275;43.208;27.620;2022-08-30T05:40:49;101151.25;;;26.67;100.00
36014;BME280;22275;43.208;27.620;2022-08-30T05:43:18;101155.38;;;26.93;100.00
36014;BME280;22275;43.208;27.620;2022-08-30T05:45:45;101151.63;;;27.23;100.00
36014;BME280;22275;43.208;27.620;2022-08-30T05:48:12;101154.41;;;27.44;100.00
36014;BME280;22275;43.208;27.620;2022-08-30T05:50:40;101156.53;;;27.49;100.00
36014;BME280;22275;43.208;27.620;2022-08-30T05:53:07;101145.97;;;27.54;100.00
36014;BME280;22275;43.208;27.620;2022-08-30T05:55:34;101143.63;;;27.86;100.00
36014;BME280;22275;43.208;27.620;2022-08-30T05:58:02;101149.34;;;28.40;100.00
36014;BME280;22275;43.208;27.620;2022-08-30T06:00:30;101142.88;;;28.41;100.00
36014;BME280;22275;43.208;27.620;2022-08-30T06:02:58;101140.25;;;28.82;100.00
36014;BME280;22275;43.208;27.620;2022-08-30T06:05:25;101134.34;;;28.72;100.00
36014;BME280;22275;43.208;27.620;2022-08-30T06:07:52;101137.78;;;28.87;100.00
36014;BME280;22275;43.208;27.620;2022-08-30T06:10:19;101128.25;;;29.04;100.00
36014;BME280;22275;43.208;27.620;2022-08-30T06:12:47;101129.16;;;29.12;100.00
36014;BME280;22275;43.208;27.620;2022-08-30T06:15:14;101137.81;;;29.28;100.00
36014;BME280;22275;43.208;27.620;2022-08-30T06:17:43;101134.56;;;29.12;100.00
36014;BME280;22275;43.208;27.620;2022-08-30T06:20:11;101134.31;;;29.60;100.00
36014;BME280;22275;43.208;27.620;2022-08-30T06:22:39;101139.81;;;29.80;100.00
36014;BME280;22275;43.208;27.620;2022-08-30T06:25:07;101138.41;;;30.37;100.00
36014;BME280;22275;43.208;27.620;2022-08-30T06:27:35;101132.06;;;30.95;100.00
36014;BME280;22275;43.208;27.620;2022-08-30T06:30:03;101137.44;;;31.08;100.00
36014;BME280;22275;43.208;27.620;2022-08-30T06:32:32;101142.66;;;31.67;100.00
36014;BME280;22275;43.208;27.620;2022-08-30T06:35:05;101131.13;;;31.65;100.00
36014;BME280;22275;43.208;27.620;2022-08-30T06:37:33;101129.84;;;31.68;100.00
36014;BME280;22275;43.208;27.620;2022-08-30T06:40:01;101122.44;;;31.44;100.00
36014;BME280;22275;43.208;27.620;2022-08-30T06:42:31;101120.72;;;31.56;100.00
36014;BME280;22275;43.208;27.620;2022-08-30T06:44:59;101124.50;;;31.86;100.00
36014;BME280;22275;43.208;27.620;2022-08-30T06:47:27;101126.09;;;31.94;100.00
36014;BME280;22275;43.208;27.620;2022-08-30T06:49:54;101125.75;;;31.52;100.00
36014;BME280;22275;43.208;27.620;2022-08-30T06:52:23;101127.03;;;31.50;100.00
36014;BME280;22275;43.208;27.620;2022-08-30T06:54:50;101123.97;;;31.71;100.00
36014;BME280;22275;43.208;27.620;2022-08-30T06:57:19;101124.75;;;31.78;100.00
36014;BME280;22275;43.208;27.620;2022-08-30T06:59:46;101124.38;;;32.06;100.00
36014;BME280;22275;43.208;27.620;2022-08-30T07:02:13;101117.41;;;32.53;100.00
36014;BME280;22275;43.208;27.620;2022-08-30T07:04:41;101111.81;;;32.72;100.00
36014;BME280;22275;43.208;27.620;2022-08-30T07:07:10;101126.81;;;31.82;100.00
36014;BME280;22275;43.208;27.620;2022-08-30T07:09:39;101124.88;;;32.21;100.00
36014;BME280;22275;43.208;27.620;2022-08-30T07:12:08;101122.34;;;32.19;100.00
36014;BME280;22275;43.208;27.620;2022-08-30T07:14:36;101123.97;;;32.02;100.00
36014;BME280;22275;43.208;27.620;2022-08-30T07:17:04;101125.91;;;31.95;100.00
36014;BME280;22275;43.208;27.620;2022-08-30T07:19:52;101118.25;;;32.78;100.00
36014;BME280;22275;43.208;27.620;2022-08-30T07:22:19;101123.63;;;32.17;100.00
36014;BME280;22275;43.208;27.620;2022-08-30T07:24:48;101115.03;;;32.63;97.29
36014;BME280;22275;43.208;27.620;2022-08-30T07:27:15;101124.75;;;32.34;99.11
36014;BME280;22275;43.208;27.620;2022-08-30T07:29:42;101113.47;;;32.55;98.92
36014;BME280;22275;43.208;27.620;2022-08-30T07:32:10;101116.97;;;32.37;98.31
36014;BME280;22275;43.208;27.620;2022-08-30T07:34:37;101119.13;;;32.29;99.26
36014;BME280;22275;43.208;27.620;2022-08-30T07:37:04;101112.47;;;32.86;96.93
36014;BME280;22275;43.208;27.620;2022-08-30T07:39:32;101110.72;;;33.10;94.54
36014;BME280;22275;43.208;27.620;2022-08-30T07:42:00;101104.41;;;33.27;95.55
36014;BME280;22275;43.208;27.620;2022-08-30T07:44:27;101094.03;;;33.47;95.20
36014;BME280;22275;43.208;27.620;2022-08-30T07:46:55;101096.66;;;33.84;92.96
36014;BME280;22275;43.208;27.620;2022-08-30T07:49:22;101093.09;;;33.83;78.13
36014;BME280;22275;43.208;27.620;2022-08-30T07:51:49;101086.22;;;33.92;82.97
36014;BME280;22275;43.208;27.620;2022-08-30T07:54:17;101091.69;;;33.51;75.59
36014;BME280;22275;43.208;27.620;2022-08-30T07:56:44;101087.88;;;33.93;74.39
36014;BME280;22275;43.208;27.620;2022-08-30T07:59:13;101092.34;;;34.29;76.37
36014;BME280;22275;43.208;27.620;2022-08-30T08:01:40;101086.38;;;34.21;76.18
36014;BME280;22275;43.208;27.620;2022-08-30T08:04:07;101086.47;;;33.91;75.24
36014;BME280;22275;43.208;27.620;2022-08-30T08:06:36;101080.09;;;34.08;76.70
36014;BME280;22275;43.208;27.620;2022-08-30T08:09:04;101075.81;;;34.24;73.53
36014;BME280;22275;43.208;27.620;2022-08-30T08:11:33;101076.88;;;34.23;70.90
36014;BME280;22275;43.208;27.620;2022-08-30T08:14:02;101068.91;;;34.45;67.21
36014;BME280;22275;43.208;27.620;2022-08-30T08:16:32;101067.19;;;33.74;68.53
36014;BME280;22275;43.208;27.620;2022-08-30T08:19:00;101070.22;;;33.54;68.68
36014;BME280;22275;43.208;27.620;2022-08-30T08:21:28;101072.19;;;33.77;66.54
36014;BME280;22275;43.208;27.620;2022-08-30T08:23:55;101069.03;;;34.15;65.21
36014;BME280;22275;43.208;27.620;2022-08-30T08:26:22;101059.00;;;34.79;63.85
36014;BME280;22275;43.208;27.620;2022-08-30T08:28:51;101055.69;;;34.42;63.18
36014;BME280;22275;43.208;27.620;2022-08-30T08:31:21;101059.13;;;34.02;63.48
36014;BME280;22275;43.208;27.620;2022-08-30T08:33:50;101052.47;;;34.68;61.56
36014;BME280;22275;43.208;27.620;2022-08-30T08:36:17;101045.56;;;34.65;61.10
36014;BME280;22275;43.208;27.620;2022-08-30T08:38:44;101036.91;;;35.25;59.96
36014;BME280;22275;43.208;27.620;2022-08-30T08:41:22;101036.69;;;34.87;59.67
36014;BME280;22275;43.208;27.620;2022-08-30T08:43:53;101040.81;;;34.49;60.44
36014;BME280;22275;43.208;27.620;2022-08-30T08:46:24;101044.03;;;34.46;60.24
36014;BME280;22275;43.208;27.620;2022-08-30T08:48:57;101038.50;;;35.21;59.13
36014;BME280;22275;43.208;27.620;2022-08-30T08:51:31;101037.00;;;35.13;59.83
36014;BME280;22275;43.208;27.620;2022-08-30T08:54:20;101039.16;;;35.00;60.48
36014;BME280;22275;43.208;27.620;2022-08-30T08:56:50;101040.22;;;34.71;61.62
36014;BME280;22275;43.208;27.620;2022-08-30T08:59:18;101034.69;;;35.67;60.74
36014;BME280;22275;43.208;27.620;2022-08-30T09:01:46;101031.44;;;35.87;57.85
36014;BME280;22275;43.208;27.620;2022-08-30T09:04:21;101035.19;;;36.14;56.70
36014;BME280;22275;43.208;27.620;2022-08-30T09:06:53;101025.88;;;36.53;55.05
36014;BME280;22275;43.208;27.620;2022-08-30T09:09:26;101021.59;;;36.62;53.15
36014;BME280;22275;43.208;27.620;2022-08-30T09:11:55;101013.31;;;36.57;53.21
36014;BME280;22275;43.208;27.620;2022-08-30T09:14:25;101018.06;;;36.07;54.55
36014;BME280;22275;43.208;27.620;2022-08-30T09:16:58;101019.16;;;36.06;54.17
36014;BME280;22275;43.208;27.620;2022-08-30T09:19:33;101016.03;;;36.36;55.07
36014;BME280;22275;43.208;27.620;2022-08-30T09:22:11;101016.75;;;36.31;53.39
36014;BME280;22275;43.208;27.620;2022-08-30T09:24:40;101017.38;;;36.00;52.80
36014;BME280;22275;43.208;27.620;2022-08-30T09:27:21;101008.91;;;36.18;52.97
36014;BME280;22275;43.208;27.620;2022-08-30T09:29:57;100997.66;;;36.58;52.21
36014;BME280;22275;43.208;27.620;2022-08-30T09:32:26;101003.13;;;36.79;51.05
36014;BME280;22275;43.208;27.620;2022-08-30T09:34:56;100996.50;;;36.97;49.81
36014;BME280;22275;43.208;27.620;2022-08-30T09:37:28;100997.06;;;36.77;50.89
36014;BME280;22275;43.208;27.620;2022-08-30T09:39:57;100991.41;;;36.62;51.86
36014;BME280;22275;43.208;27.620;2022-08-30T09:42:27;100990.69;;;36.50;51.33
36014;BME280;22275;43.208;27.620;2022-08-30T09:44:56;101000.19;;;36.86;50.11
36014;BME280;22275;43.208;27.620;2022-08-30T09:47:37;100999.69;;;36.67;49.70
36014;BME280;22275;43.208;27.620;2022-08-30T09:50:09;100991.38;;;37.06;48.65
36014;BME280;22275;43.208;27.620;2022-08-30T09:52:54;100990.03;;;36.86;49.01
36014;BME280;22275;43.208;27.620;2022-08-30T09:55:54;100991.16;;;36.47;50.04
36014;BME280;22275;43.208;27.620;2022-08-30T09:58:32;100988.97;;;37.14;49.42
36014;BME280;22275;43.208;27.620;2022-08-30T10:01:10;100986.84;;;36.95;49.09
36014;BME280;22275;43.208;27.620;2022-08-30T10:03:42;100980.31;;;36.79;50.18
36014;BME280;22275;43.208;27.620;2022-08-30T10:06:23;100983.72;;;36.86;49.25
36014;BME280;22275;43.208;27.620;2022-08-30T10:09:13;100972.09;;;37.32;50.01
36014;BME280;22275;43.208;27.620;2022-08-30T10:11:47;100977.94;;;37.09;49.91
36014;BME280;22275;43.208;27.620;2022-08-30T10:14:36;100986.63;;;37.28;48.81
36014;BME280;22275;43.208;27.620;2022-08-30T10:17:12;100970.66;;;37.52;48.45
36014;BME280;22275;43.208;27.620;2022-08-30T10:19:52;100979.44;;;37.22;47.78
36014;BME280;22275;43.208;27.620;2022-08-30T10:22:29;100973.06;;;36.90;48.95
36014;BME280;22275;43.208;27.620;2022-08-30T10:25:02;100967.00;;;36.93;49.06
36014;BME280;22275;43.208;27.620;2022-08-30T10:27:35;100964.84;;;37.48;48.05
36014;BME280;22275;43.208;27.620;2022-08-30T10:30:11;100963.84;;;37.01;49.29
36014;BME280;22275;43.208;27.620;2022-08-30T10:32:44;100958.22;;;36.91;49.62
36014;BME280;22275;43.208;27.620;2022-08-30T10:35:16;100957.91;;;37.40;48.35
36014;BME280;22275;43.208;27.620;2022-08-30T10:37:49;100958.31;;;37.27;48.70
36014;BME280;22275;43.208;27.620;2022-08-30T10:40:24;100957.34;;;37.75;47.36
36014;BME280;22275;43.208;27.620;2022-08-30T10:43:19;100953.53;;;37.81;47.64
36014;BME280;22275;43.208;27.620;2022-08-30T10:45:49;100955.00;;;37.89;48.18
36014;BME280;22275;43.208;27.620;2022-08-30T10:48:23;100946.66;;;37.84;47.72
36014;BME280;22275;43.208;27.620;2022-08-30T10:50:53;100947.69;;;37.41;47.99
36014;BME280;22275;43.208;27.620;2022-08-30T10:53:28;100945.06;;;37.46;47.90
36014;BME280;22275;43.208;27.620;2022-08-30T10:56:02;100939.91;;;37.28;48.28
36014;BME280;22275;43.208;27.620;2022-08-30T10:58:31;100939.16;;;37.06;48.86
36014;BME280;22275;43.208;27.620;2022-08-30T11:01:14;100932.03;;;37.41;48.54
36014;BME280;22275;43.208;27.620;2022-08-30T11:04:05;100931.31;;;36.93;48.69
36014;BME280;22275;43.208;27.620;2022-08-30T11:06:41;100927.03;;;37.02;49.75
36014;BME280;22275;43.208;27.620;2022-08-30T11:09:22;100917.56;;;36.93;50.25
36014;BME280;22275;43.208;27.620;2022-08-30T11:12:29;100924.03;;;37.03;50.07
36014;BME280;22275;43.208;27.620;2022-08-30T11:14:59;100922.06;;;36.72;50.67
36014;BME280;22275;43.208;27.620;2022-08-30T11:17:30;100919.03;;;36.73;52.30
36014;BME280;22275;43.208;27.620;2022-08-30T11:20:00;100918.81;;;36.53;51.86
36014;BME280;22275;43.208;27.620;2022-08-30T11:22:31;100920.53;;;36.38;54.25
36014;BME280;22275;43.208;27.620;2022-08-30T11:25:12;100907.31;;;36.56;54.43
36014;BME280;22275;43.208;27.620;2022-08-30T11:27:43;100913.88;;;37.04;54.01
36014;BME280;22275;43.208;27.620;2022-08-30T11:30:45;100904.03;;;36.81;54.14
36014;BME280;22275;43.208;27.620;2022-08-30T11:40:05;100895.25;;;36.57;53.62
36014;BME280;22275;43.208;27.620;2022-08-30T11:42:37;100904.56;;;36.56;53.03
36014;BME280;22275;43.208;27.620;2022-08-30T11:45:46;100906.69;;;36.76;52.40
36014;BME280;22275;43.208;27.620;2022-08-30T11:48:42;100899.41;;;36.38;50.76
36014;BME280;22275;43.208;27.620;2022-08-30T11:54:19;100893.19;;;35.83;51.12
36014;BME280;22275;43.208;27.620;2022-08-30T11:56:57;100898.72;;;36.04;53.79
36014;BME280;22275;43.208;27.620;2022-08-30T11:59:36;100899.06;;;35.91;52.68
36014;BME280;22275;43.208;27.620;2022-08-30T12:02:05;100886.78;;;36.15;51.88
36014;BME280;22275;43.208;27.620;2022-08-30T12:04:43;100900.69;;;36.09;53.32
36014;BME280;22275;43.208;27.620;2022-08-30T12:10:22;100892.88;;;36.01;54.62
36014;BME280;22275;43.208;27.620;2022-08-30T12:12:51;100897.22;;;35.97;56.15
36014;BME280;22275;43.208;27.620;2022-08-30T12:18:31;100885.41;;;36.13;55.28
36014;BME280;22275;43.208;27.620;2022-08-30T12:21:04;100878.91;;;36.46;55.07
36014;BME280;22275;43.208;27.620;2022-08-30T12:23:40;100876.50;;;36.27;53.67
36014;BME280;22275;43.208;27.620;2022-08-30T12:26:10;100879.63;;;36.36;52.91
36014;BME280;22275;43.208;27.620;2022-08-30T12:28:38;100873.50;;;36.29;55.27
36014;BME280;22275;43.208;27.620;2022-08-30T12:31:10;100885.22;;;36.46;54.18
36014;BME280;22275;43.208;27.620;2022-08-30T12:33:42;100874.25;;;36.46;53.59
36014;BME280;22275;43.208;27.620;2022-08-30T12:36:15;100877.16;;;36.13;60.61
36014;BME280;22275;43.208;27.620;2022-08-30T12:38:43;100871.53;;;36.03;61.25
36014;BME280;22275;43.208;27.620;2022-08-30T12:41:18;100877.59;;;36.05;62.14
36014;BME280;22275;43.208;27.620;2022-08-30T12:43:49;100865.09;;;36.14;58.80
36014;BME280;22275;43.208;27.620;2022-08-30T12:46:19;100872.06;;;36.21;59.13
36014;BME280;22275;43.208;27.620;2022-08-30T12:48:48;100870.94;;;36.01;60.43
36014;BME280;22275;43.208;27.620;2022-08-30T12:51:29;100858.47;;;35.71;60.74
36014;BME280;22275;43.208;27.620;2022-08-30T12:54:12;100871.19;;;35.78;62.45
36014;BME280;22275;43.208;27.620;2022-08-30T12:56:49;100857.84;;;35.86;62.52
36014;BME280;22275;43.208;27.620;2022-08-30T12:59:48;100857.09;;;35.91;65.00
36014;BME280;22275;43.208;27.620;2022-08-30T13:02:19;100867.97;;;35.64;63.87
36014;BME280;22275;43.208;27.620;2022-08-30T13:04:50;100858.84;;;35.58;66.76
36014;BME280;22275;43.208;27.620;2022-08-30T13:07:26;100858.81;;;35.97;66.44